Time;durP1;ratioP1;P1;durP2;ratioP2;P2;SDS_P1;SDS_P2;PMS_P1;PMS_P2;Temp;Humidity;BMP_temperature;BMP_pressure;BME280_temperature;BME280_humidity;BME280_pressure;Samples;Min_cycle;Max_cycle;Signal;HPM_P1;HPM_P2
2022/11/15 04:01:07;;;;;;;;;;;17.00;52.30;;;;;;5625686;23;46100;-60
2022/11/15 04:03:33;;;;;;;;;;;17.00;52.30;;;;;;4936892;28;45433;-60
2022/11/15 04:05:58;;;;;;;;;;;17.00;52.30;;;;;;4943891;28;47501;-59
2022/11/15 04:08:23;;;;;;;;;;;17.00;52.30;;;;;;4928395;28;45435;-59
2022/11/15 04:10:49;;;;;;;;;;;17.00;52.40;;;;;;4948949;28;45322;-59
2022/11/15 04:13:15;;;;;;;;;;;17.00;52.30;;;;;;4915128;28;44916;-59
2022/11/15 04:15:40;;;;;;;;;;;17.00;52.30;;;;;;4925793;28;45296;-59
2022/11/15 04:18:06;;;;;;;;;;;17.00;52.40;;;;;;4935443;28;45050;-59
2022/11/15 04:26:20;;;;;;;;;;;16.90;52.30;;;;;;4889564;28;45433;-59
2022/11/15 04:31:30;;;;;;;;;;;16.90;52.20;;;;;;4933113;28;45429;-59
2022/11/15 04:33:55;;;;;;;;;;;16.90;52.20;;;;;;4935406;28;44710;-60
2022/11/15 04:39:05;;;;;;;;;;;16.90;52.30;;;;;;4943289;28;45318;-60
2022/11/15 04:41:30;;;;;;;;;;;16.90;52.30;;;;;;4937186;28;45278;-60
2022/11/15 04:43:56;;;;;;;;;;;16.80;52.30;;;;;;4950265;28;44900;-59
2022/11/15 04:46:22;;;;;;;;;;;16.90;52.40;;;;;;4932821;28;45576;-59
2022/11/15 04:48:47;;;;;;;;;;;16.90;52.40;;;;;;4931298;28;45308;-60
2022/11/15 04:51:13;;;;;;;;;;;16.80;52.30;;;;;;4931808;28;45314;-60
2022/11/15 04:53:38;;;;;;;;;;;16.80;52.40;;;;;;4946140;28;45175;-60
2022/11/15 04:56:04;;;;;;;;;;;16.80;52.40;;;;;;4935184;28;47149;-60
2022/11/15 04:58:29;;;;;;;1.10;0.80;;;16.80;52.40;;;;;;4934207;28;45304;-60
2022/11/15 05:00:55;;;;;;;1.13;0.90;;;16.80;52.20;;;;;;4895020;28;46472;-60
2022/11/15 05:06:05;;;;;;;1.08;0.98;;;16.80;52.10;;;;;;4932332;28;48267;-60
2022/11/15 05:08:31;;;;;;;1.58;1.17;;;16.80;52.20;;;;;;4930717;28;45237;-59
2022/11/15 05:10:56;;;;;;;1.50;1.40;;;16.80;52.10;;;;;;4948241;28;45230;-59
2022/11/15 05:13:22;;;;;;;2.70;1.40;;;16.80;52.20;;;;;;4939894;28;44992;-61
2022/11/15 05:15:47;;;;;;;0.75;0.75;;;16.80;52.20;;;;;;4932009;28;46562;-59
2022/11/15 05:18:13;;;;;;;2.90;1.08;;;16.80;52.20;;;;;;4945968;28;45448;-60
2022/11/15 05:20:39;;;;;;;0.90;0.90;;;16.80;52.30;;;;;;4949458;28;45471;-61
2022/11/15 05:23:07;;;;;;;1.20;1.10;;;16.80;52.20;;;;;;4955115;28;45241;-59
2022/11/15 05:25:32;;;;;;;1.30;1.10;;;16.80;52.30;;;;;;4937071;28;45553;-60
2022/11/15 05:27:58;;;;;;;1.70;1.35;;;16.80;52.30;;;;;;4936329;28;45234;-60
2022/11/15 05:30:23;;;;;;;1.27;1.13;;;16.80;52.30;;;;;;4930241;28;45248;-59
2022/11/15 05:32:49;;;;;;;1.70;1.20;;;16.80;52.30;;;;;;4916782;28;45201;-60
2022/11/15 05:35:45;;;;;;;1.00;0.90;;;16.80;52.30;;;;;;4928928;28;45341;-60
2022/11/15 05:38:11;;;;;;;1.17;1.08;;;16.80;52.30;;;;;;4917396;28;44867;-60
2022/11/15 05:40:36;;;;;;;1.20;0.95;;;16.80;52.30;;;;;;4934395;28;45414;-60
2022/11/15 05:43:02;;;;;;;1.10;1.00;;;16.80;52.30;;;;;;4917815;28;45552;-60
2022/11/15 05:45:28;;;;;;;1.10;1.00;;;16.80;52.30;;;;;;4933240;28;45243;-60
2022/11/15 05:47:54;;;;;;;1.20;1.10;;;16.70;52.20;;;;;;4932191;28;45603;-61
2022/11/15 05:50:19;;;;;;;1.30;1.20;;;16.80;52.30;;;;;;4933004;28;45613;-59
2022/11/15 05:52:45;;;;;;;1.20;1.10;;;16.70;52.20;;;;;;4929111;28;45568;-60
2022/11/15 05:55:10;;;;;;;1.88;1.17;;;16.70;52.20;;;;;;4936192;28;45443;-61
2022/11/15 05:57:36;;;;;;;1.20;0.93;;;16.70;52.20;;;;;;4929550;28;44984;-58
2022/11/15 06:00:03;;;;;;;1.02;1.00;;;16.70;52.20;;;;;;4902080;28;45532;-60
2022/11/15 06:02:28;;;;;;;2.00;1.30;;;16.70;52.20;;;;;;4923409;28;45026;-61
2022/11/15 06:04:54;;;;;;;0.73;0.73;;;16.70;52.30;;;;;;4948253;28;45459;-61
2022/11/15 06:07:19;;;;;;;2.28;1.33;;;16.70;52.20;;;;;;4939679;28;44647;-60
2022/11/15 06:09:45;;;;;;;1.27;1.10;;;16.70;52.20;;;;;;4928832;28;45136;-59
2022/11/15 06:12:11;;;;;;;1.20;1.10;;;16.70;52.20;;;;;;4947085;28;45220;-60
2022/11/15 06:14:36;;;;;;;1.48;1.27;;;16.70;52.20;;;;;;4920546;28;46911;-61
2022/11/15 06:17:02;;;;;;;1.95;1.42;;;16.70;52.20;;;;;;4948102;28;45667;-61
2022/11/15 06:19:32;;;;;;;1.75;1.30;;;16.70;52.20;;;;;;4929561;28;45377;-61
2022/11/15 06:21:58;;;;;;;1.05;0.93;;;16.70;52.30;;;;;;4934842;28;45344;-61
2022/11/15 06:24:24;;;;;;;1.10;1.00;;;16.60;52.20;;;;;;4917245;28;45577;-61
2022/11/15 06:26:49;;;;;;;1.77;1.10;;;16.60;52.20;;;;;;4933903;28;45448;-60
2022/11/15 06:29:15;;;;;;;1.17;1.05;;;16.60;52.20;;;;;;4928495;28;46190;-61
2022/11/15 06:31:41;;;;;;;1.40;0.88;;;16.60;52.20;;;;;;4913454;28;45084;-60
2022/11/15 06:34:06;;;;;;;1.10;1.00;;;16.60;52.20;;;;;;4938654;28;45178;-58
2022/11/15 06:36:34;;;;;;;1.80;1.15;;;16.60;52.20;;;;;;4947866;28;45631;-60
2022/11/15 06:39:00;;;;;;;1.40;1.08;;;16.60;52.30;;;;;;4919294;28;45487;-60
2022/11/15 06:41:25;;;;;;;1.30;1.20;;;16.60;52.30;;;;;;4943890;28;46415;-61
2022/11/15 06:43:51;;;;;;;1.52;1.30;;;16.60;52.20;;;;;;4902843;28;45448;-60
2022/11/15 06:46:16;;;;;;;2.35;1.30;;;16.60;52.20;;;;;;4932255;28;45445;-61
2022/11/15 06:48:42;;;;;;;1.20;1.10;;;16.60;52.20;;;;;;4938594;28;45067;-60
2022/11/15 06:51:08;;;;;;;1.30;1.17;;;16.60;52.20;;;;;;4929541;28;45367;-60
2022/11/15 06:53:33;;;;;;;1.02;0.75;;;16.60;52.20;;;;;;4930203;28;45526;-60
2022/11/15 06:56:00;;;;;;;1.33;1.23;;;16.60;52.80;;;;;;4918665;28;44704;-61
2022/11/15 06:58:26;;;;;;;1.58;1.38;;;16.60;52.20;;;;;;4947490;28;44856;-60
2022/11/15 07:00:51;;;;;;;2.28;1.30;;;16.60;52.20;;;;;;4928257;28;45137;-61
2022/11/15 07:03:17;;;;;;;1.50;1.20;;;16.60;52.40;;;;;;4935005;28;45663;-61
2022/11/15 07:05:59;;;;;;;1.17;1.00;;;16.60;52.30;;;;;;4952093;28;45193;-59
2022/11/15 07:08:27;;;;;;;1.10;1.00;;;16.60;52.30;;;;;;4947664;28;44969;-58
2022/11/15 07:10:52;;;;;;;1.85;1.15;;;16.60;52.30;;;;;;4897070;28;44985;-59
2022/11/15 07:13:18;;;;;;;1.10;1.00;;;16.60;52.20;;;;;;4916828;28;47294;-60
2022/11/15 07:15:43;;;;;;;;;;;16.50;52.20;;;;;;4933579;28;45289;-60
2022/11/15 07:18:09;;;;;;;;;;;16.50;52.40;;;;;;4963213;28;45387;-58
2022/11/15 07:20:34;;;;;;;;;;;16.50;52.50;;;;;;4950983;28;45658;-60
2022/11/15 07:23:03;;;;;;;;;;;16.60;52.40;;;;;;4932217;28;46635;-60
2022/11/15 07:25:29;;;;;;;;;;;16.70;52.20;;;;;;4933310;28;45216;-61
2022/11/15 07:27:55;;;;;;;;;;;16.90;52.10;;;;;;4951340;28;45389;-60
2022/11/15 07:30:23;;;;;;;;;;;17.00;51.70;;;;;;4945777;28;45456;-60
2022/11/15 07:32:58;;;;;;;;;;;17.20;51.40;;;;;;4930849;28;45454;-59
2022/11/15 07:35:24;;;;;;;;;;;17.40;51.10;;;;;;4955035;28;45318;-59
2022/11/15 07:37:53;;;;;;;;;;;17.60;50.80;;;;;;4953298;28;45192;-60
2022/11/15 07:40:18;;;;;;;0.77;0.77;;;17.70;50.50;;;;;;4956885;28;45042;-61
2022/11/15 07:42:53;;;;;;;1.63;1.00;;;17.90;50.30;;;;;;4952647;28;45980;-60
2022/11/15 07:45:20;;;;;;;0.82;0.82;;;18.10;50.20;;;;;;4939536;28;45172;-61
2022/11/15 07:47:46;;;;;;;0.90;0.80;;;18.30;50.00;;;;;;4927762;28;44716;-60
2022/11/15 07:50:12;;;;;;;1.13;1.00;;;18.40;49.90;;;;;;4919691;28;45485;-63
2022/11/15 07:52:37;;;;;;;1.08;0.98;;;18.60;49.80;;;;;;4947840;28;45481;-61
2022/11/15 07:55:03;;;;;;;0.80;0.80;;;18.70;49.60;;;;;;4925132;28;45219;-61
2022/11/15 07:57:29;;;;;;;1.10;1.00;;;18.90;49.50;;;;;;4960228;28;45025;-61
2022/11/15 07:59:55;;;;;;;0.85;0.80;;;19.10;49.30;;;;;;4953748;28;45548;-59
2022/11/15 08:02:20;;;;;;;1.42;1.00;;;19.20;49.20;;;;;;4923078;28;45589;-59
2022/11/15 08:04:46;;;;;;;1.10;0.93;;;19.30;49.00;;;;;;4929586;28;45403;-61
2022/11/15 08:07:12;;;;;;;1.10;1.00;;;19.50;49.00;;;;;;4897297;28;45189;-61
2022/11/15 08:09:37;;;;;;;0.73;0.73;;;19.60;48.70;;;;;;4928705;28;45091;-62
2022/11/15 08:12:03;;;;;;;1.23;0.93;;;19.70;48.70;;;;;;4932893;28;45886;-60
2022/11/15 08:14:29;;;;;;;0.85;0.82;;;19.70;48.60;;;;;;4933988;28;44774;-61
2022/11/15 08:16:55;;;;;;;2.08;1.00;;;19.70;48.50;;;;;;4931596;28;45554;-61
2022/11/15 08:19:20;;;;;;;0.80;0.70;;;19.80;48.70;;;;;;4915245;28;45560;-59
2022/11/15 08:21:46;;;;;;;1.17;1.00;;;19.90;48.80;;;;;;4912844;28;45405;-60
2022/11/15 08:24:12;;;;;;;1.00;0.85;;;19.90;48.60;;;;;;4916291;28;45247;-61
2022/11/15 08:26:37;;;;;;;1.23;0.98;;;20.10;48.50;;;;;;4919484;28;45325;-61
2022/11/15 08:29:03;;;;;;;1.10;0.80;;;20.20;48.20;;;;;;4939266;28;45175;-61
2022/11/15 08:31:28;;;;;;;0.93;0.82;;;20.40;48.20;;;;;;4926589;28;45349;-60
2022/11/15 08:33:54;;;;;;;0.80;0.80;;;20.50;48.10;;;;;;4934338;28;45607;-60
2022/11/15 08:36:20;;;;;;;0.80;0.70;;;20.60;48.00;;;;;;4933018;28;45643;-57
2022/11/15 08:38:45;;;;;;;1.10;0.70;;;20.70;47.90;;;;;;4941414;28;45197;-61
2022/11/15 08:41:21;;;;;;;0.60;0.60;;;20.80;47.80;;;;;;4916096;28;46143;-58
2022/11/15 08:43:47;;;;;;;0.73;0.70;;;20.90;47.60;;;;;;4901878;28;45383;-61
2022/11/15 08:46:12;;;;;;;1.15;0.80;;;21.00;47.60;;;;;;4901655;28;45430;-61
2022/11/15 08:48:38;;;;;;;0.60;0.60;;;21.20;47.60;;;;;;4914741;28;45400;-61
2022/11/15 08:51:04;;;;;;;0.88;0.70;;;21.30;47.50;;;;;;4932262;28;46347;-60
2022/11/15 08:53:30;;;;;;;1.05;0.95;;;21.40;47.40;;;;;;4929414;28;44968;-60
2022/11/15 08:55:55;;;;;;;1.00;0.80;;;21.50;47.30;;;;;;4917580;28;45364;-60
2022/11/15 08:58:21;;;;;;;1.02;0.80;;;21.60;47.20;;;;;;4931295;28;45174;-59
2022/11/15 09:00:46;;;;;;;0.80;0.80;;;21.70;47.10;;;;;;4915360;28;45866;-57
2022/11/15 09:03:12;;;;;;;0.77;0.60;;;21.80;47.30;;;;;;4951927;28;45451;-59
2022/11/15 09:05:37;;;;;;;0.80;0.80;;;21.80;46.80;;;;;;4949483;28;45196;-59
2022/11/15 09:08:03;;;;;;;1.30;0.80;;;22.00;46.80;;;;;;4952949;28;45409;-57
2022/11/15 09:10:29;;;;;;;0.70;0.70;;;22.00;46.60;;;;;;4930028;28;47040;-61
2022/11/15 09:12:57;;;;;;;0.70;0.70;;;22.10;46.60;;;;;;4926699;28;45311;-61
2022/11/15 09:15:22;;;;;;;0.90;0.80;;;22.20;46.50;;;;;;4939377;28;45471;-59
2022/11/15 09:17:48;;;;;;;0.90;0.73;;;22.30;46.50;;;;;;4931210;28;45032;-59
2022/11/15 09:20:14;;;;;;;0.85;0.77;;;22.40;46.30;;;;;;4937180;28;46038;-61
2022/11/15 09:22:40;;;;;;;1.73;0.93;;;22.50;46.30;;;;;;4950808;28;44922;-58
2022/11/15 09:25:06;;;;;;;0.75;0.70;;;22.50;46.20;;;;;;4918342;28;45386;-57
2022/11/15 09:27:31;;;;;;;1.30;0.85;;;22.50;46.10;;;;;;4949647;28;45143;-57
2022/11/15 09:29:57;;;;;;;0.85;0.80;;;22.60;46.10;;;;;;4938510;28;45706;-61
2022/11/15 09:32:23;;;;;;;0.68;0.68;;;22.60;46.00;;;;;;4922228;28;45324;-60
2022/11/15 09:34:49;;;;;;;0.82;0.82;;;22.60;45.90;;;;;;4947326;28;45615;-58
2022/11/15 09:37:15;;;;;;;1.15;0.73;;;22.70;45.90;;;;;;4946457;28;45547;-59
2022/11/15 09:39:40;;;;;;;1.95;0.73;;;22.70;45.90;;;;;;4950680;28;45244;-64
2022/11/15 09:42:34;;;;;;;1.42;0.60;;;22.80;45.90;;;;;;4951887;28;45423;-59
2022/11/15 09:45:08;;;;;;;0.90;0.73;;;22.80;45.30;;;;;;4952542;28;45209;-59
2022/11/15 09:47:59;;;;;;;0.70;0.63;;;22.80;45.60;;;;;;4932937;28;45172;-59
2022/11/15 09:50:36;;;;;;;1.35;0.77;;;22.90;45.30;;;;;;4929913;28;45666;-61
2022/11/15 09:53:02;;;;;;;1.33;0.82;;;22.90;45.40;;;;;;4932227;28;45533;-61
2022/11/15 09:55:59;;;;;;;0.57;0.57;;;23.00;45.60;;;;;;4927525;28;45707;-61
2022/11/15 09:58:39;;;;;;;2.45;0.80;;;23.00;45.30;;;;;;4928352;28;44961;-62
2022/11/15 10:01:08;;;;;;;1.08;0.60;;;23.10;45.20;;;;;;4920778;28;45292;-62
2022/11/15 10:03:34;;;;;;;0.80;0.70;;;23.10;45.50;;;;;;4921949;28;45190;-62
2022/11/15 10:06:02;;;;;;;1.33;0.50;;;23.10;45.50;;;;;;4922464;28;45217;-61
2022/11/15 10:08:50;;;;;;;2.72;0.73;;;23.20;45.50;;;;;;4915018;28;45446;-60
2022/11/15 10:11:21;;;;;;;0.70;0.70;;;23.20;45.00;;;;;;4917395;28;46937;-62
2022/11/15 10:13:50;;;;;;;0.85;0.70;;;23.30;45.40;;;;;;4922178;28;45323;-56
2022/11/15 10:16:40;;;;;;;0.90;0.68;;;23.30;45.30;;;;;;4951681;28;45498;-57
2022/11/15 10:19:14;;;;;;;0.90;0.63;;;23.30;45.10;;;;;;4928871;28;45388;-59
2022/11/15 10:22:11;;;;;;;0.52;0.52;;;23.30;45.10;;;;;;4949295;28;45394;-62
2022/11/15 10:24:40;;;;;;;0.88;0.70;;;23.40;44.80;;;;;;4934540;28;45107;-59
2022/11/15 10:27:16;;;;;;;0.88;0.70;;;23.40;45.10;;;;;;4898655;28;45234;-61
2022/11/15 10:29:44;;;;;;;1.02;0.80;;;23.50;44.90;;;;;;4932520;28;45263;-60
2022/11/15 10:32:11;;;;;;;1.13;0.77;;;23.50;45.00;;;;;;4943937;28;45832;-59
2022/11/15 10:34:36;;;;;;;0.95;0.77;;;23.50;45.00;;;;;;4929046;28;45256;-61
2022/11/15 10:37:02;;;;;;;0.60;0.45;;;23.60;45.00;;;;;;4948307;28;45019;-62
2022/11/15 10:39:28;;;;;;;0.80;0.70;;;23.60;45.00;;;;;;4946268;28;45606;-60
2022/11/15 10:41:53;;;;;;;0.60;0.60;;;23.60;44.90;;;;;;4911848;28;45433;-62
2022/11/15 10:44:26;;;;;;;0.70;0.70;;;23.70;44.90;;;;;;4930889;28;45707;-61
2022/11/15 10:46:54;;;;;;;0.80;0.80;;;23.70;44.80;;;;;;4949845;28;45454;-61
2022/11/15 10:49:21;;;;;;;0.80;0.60;;;23.70;44.80;;;;;;4951371;28;45158;-58
2022/11/15 10:51:48;;;;;;;0.65;0.50;;;23.70;44.80;;;;;;4942536;28;46637;-61
2022/11/15 10:54:18;;;;;;;0.50;0.50;;;23.80;44.80;;;;;;4923000;28;45508;-62
2022/11/15 10:56:47;;;;;;;1.77;0.75;;;23.80;44.70;;;;;;4923620;28;45247;-61
2022/11/15 10:59:24;;;;;;;0.60;0.60;;;23.80;44.70;;;;;;4917366;28;45791;-61
2022/11/15 11:01:49;;;;;;;0.60;0.50;;;23.90;44.60;;;;;;4883936;28;46060;-61
2022/11/15 11:04:15;;;;;;;0.85;0.60;;;23.90;44.70;;;;;;4951056;28;45278;-61
2022/11/15 11:06:49;;;;;;;1.63;0.75;;;24.00;44.60;;;;;;4899652;28;45430;-61
2022/11/15 11:09:36;;;;;;;3.13;0.80;;;24.00;44.40;;;;;;4926694;28;45044;-61
2022/11/15 11:12:03;;;;;;;3.58;0.60;;;24.00;44.10;;;;;;4935592;28;46972;-60
2022/11/15 11:14:31;;;;;;;1.73;0.70;;;24.00;44.50;;;;;;4953972;28;45517;-60
2022/11/15 11:17:02;;;;;;;1.88;0.45;;;24.00;44.50;;;;;;4926248;28;45396;-61
2022/11/15 11:19:48;;;;;;;0.55;0.50;;;24.10;44.50;;;;;;4950682;28;45379;-58
2022/11/15 11:22:26;;;;;;;0.52;0.52;;;24.10;44.20;;;;;;4937572;28;45409;-62
2022/11/15 11:25:03;;;;;;;0.47;0.45;;;24.10;44.10;;;;;;4950057;28;45292;-59
2022/11/15 11:28:08;;;;;;;1.00;0.40;;;24.10;44.40;;;;;;4944719;28;45254;-61
2022/11/15 11:31:04;;;;;;;1.17;0.40;;;24.10;43.90;;;;;;4937838;28;45141;-62
2022/11/15 11:33:58;;;;;;;0.63;0.47;;;24.10;44.00;;;;;;4959284;28;46172;-58
2022/11/15 11:36:48;;;;;;;0.60;0.60;;;24.10;44.20;;;;;;4929641;28;45190;-57
2022/11/15 11:39:37;;;;;;;0.80;0.63;;;24.20;44.30;;;;;;4944895;28;44888;-61
2022/11/15 11:42:25;;;;;;;0.80;0.57;;;24.20;44.30;;;;;;4947176;28;46212;-60
2022/11/15 11:45:16;;;;;;;0.40;0.40;;;24.20;43.90;;;;;;4956828;28;45256;-60
2022/11/15 11:47:47;;;;;;;0.95;0.50;;;24.30;44.10;;;;;;4939509;28;44921;-59
2022/11/15 11:50:14;;;;;;;0.40;0.40;;;24.20;44.10;;;;;;4919556;28;45159;-57
2022/11/15 11:53:12;;;;;;;0.82;0.50;;;24.20;44.30;;;;;;4935393;28;45279;-58
2022/11/15 11:55:43;;;;;;;0.47;0.47;;;24.30;43.90;;;;;;4941689;28;46303;-61
2022/11/15 11:58:19;;;;;;;0.57;0.40;;;24.30;44.20;;;;;;4919983;28;45172;-62
2022/11/15 12:01:16;;;;;;;0.43;0.43;;;24.40;44.00;;;;;;4918949;28;45476;-60
2022/11/15 12:03:45;;;;;;;1.73;0.57;;;24.30;43.80;;;;;;4936301;28;45552;-60
2022/11/15 12:06:21;;;;;;;0.70;0.57;;;24.30;44.30;;;;;;4960698;28;46385;-60
2022/11/15 12:08:53;;;;;;;0.68;0.57;;;24.40;44.20;;;;;;4913168;28;45263;-61
2022/11/15 12:11:56;;;;;;;0.82;0.63;;;24.40;44.30;;;;;;4939557;28;45372;-60
2022/11/15 12:14:45;;;;;;;0.63;0.57;;;24.40;44.20;;;;;;4897801;28;45395;-61
2022/11/15 12:17:11;;;;;;;0.88;0.47;;;24.40;44.20;;;;;;4931654;28;45395;-61
2022/11/15 12:19:37;;;;;;;0.70;0.50;;;24.40;44.20;;;;;;4937127;28;44786;-60
2022/11/15 12:22:15;;;;;;;1.08;0.55;;;24.40;44.20;;;;;;4934015;28;45221;-60
2022/11/15 12:24:46;;;;;;;0.88;0.50;;;24.50;44.10;;;;;;4954746;28;45303;-62
2022/11/15 12:27:38;;;;;;;0.60;0.60;;;24.50;44.20;;;;;;4935494;28;46081;-61
2022/11/15 12:30:11;;;;;;;1.17;0.43;;;24.50;44.10;;;;;;4934262;28;45290;-61
2022/11/15 12:32:37;;;;;;;;;;;24.50;44.20;;;;;;4920309;28;45440;-61
2022/11/15 12:35:20;;;;;;;0.38;0.38;;;24.50;43.90;;;;;;4950748;28;46168;-61
2022/11/15 12:37:50;;;;;;;0.47;0.40;;;24.50;44.20;;;;;;4921241;28;49084;-60
2022/11/15 12:40:20;;;;;;;0.75;0.50;;;24.60;44.80;;;;;;4933466;28;45217;-62
2022/11/15 12:43:05;;;;;;;0.40;0.30;;;24.60;44.20;;;;;;4950994;28;45307;-61
2022/11/15 12:45:37;;;;;;;0.50;0.50;;;24.60;43.90;;;;;;4935352;28;45685;-61
2022/11/15 12:48:18;;;;;;;0.70;0.60;;;24.60;44.20;;;;;;4937495;28;45334;-62
2022/11/15 12:50:55;;;;;;;0.60;0.60;;;24.60;44.00;;;;;;4952575;28;45225;-61
2022/11/15 12:53:24;;;;;;;0.70;0.43;;;24.60;44.10;;;;;;4936367;28;45301;-62
2022/11/15 12:56:11;;;;;;;0.95;0.50;;;24.60;44.30;;;;;;4946220;28;45158;-61
2022/11/15 12:58:51;;;;;;;0.57;0.57;;;24.60;44.10;;;;;;4935977;28;45975;-62
2022/11/15 13:01:35;;;;;;;0.70;0.50;;;24.60;44.20;;;;;;4915565;28;45296;-61
2022/11/15 13:04:19;;;;;;;0.73;0.50;;;24.60;44.20;;;;;;4938478;28;45423;-62
2022/11/15 13:06:52;;;;;;;0.75;0.60;;;24.60;44.20;;;;;;4953175;28;45038;-62
2022/11/15 13:09:36;;;;;;;0.50;0.50;;;24.60;44.30;;;;;;4902227;28;47052;-62
2022/11/15 13:12:26;;;;;;;0.88;0.50;;;24.60;44.20;;;;;;4951974;28;45157;-62
2022/11/15 13:14:53;;;;;;;0.50;0.50;;;24.50;44.30;;;;;;4952339;28;44961;-62
2022/11/15 13:17:18;;;;;;;0.60;0.60;;;24.50;44.50;;;;;;4934667;28;45750;-62
2022/11/15 13:19:58;;;;;;;0.95;0.63;;;24.50;44.50;;;;;;4951298;28;45267;-61
2022/11/15 13:25:35;;;;;;;0.50;0.40;;;24.60;44.50;;;;;;4953137;28;45016;-61
2022/11/15 13:28:17;;;;;;;1.55;0.40;;;24.60;44.20;;;;;;4946996;28;45224;-61
2022/11/15 13:30:56;;;;;;;0.77;0.70;;;24.60;44.50;;;;;;4930267;28;46477;-62
2022/11/15 13:33:36;;;;;;;1.20;0.50;;;24.60;44.40;;;;;;4904564;28;45482;-62
2022/11/15 13:36:05;;;;;;;0.40;0.40;;;24.60;45.10;;;;;;4920658;28;45233;-62
2022/11/15 13:38:32;;;;;;;1.55;0.98;;;24.60;44.50;;;;;;4919209;28;45245;-61
2022/11/15 13:40:59;;;;;;;0.30;0.30;;;24.60;44.50;;;;;;4933382;28;45617;-62
2022/11/15 13:43:36;;;;;;;0.50;0.50;;;24.60;44.60;;;;;;4939959;28;45451;-62
2022/11/15 13:46:06;;;;;;;0.43;0.43;;;24.60;44.40;;;;;;4938983;28;45365;-61
2022/11/15 13:48:33;;;;;;;0.80;0.60;;;24.60;44.50;;;;;;4935698;28;45045;-62
2022/11/15 13:50:59;;;;;;;0.95;0.50;;;24.60;44.60;;;;;;4934909;28;45384;-62
2022/11/15 13:53:25;;;;;;;0.85;0.47;;;24.60;44.60;;;;;;4938339;28;45171;-62
2022/11/15 13:55:51;;;;;;;0.40;0.40;;;24.60;44.60;;;;;;4910319;28;44954;-61
2022/11/15 13:58:16;;;;;;;0.55;0.52;;;24.60;44.60;;;;;;4950065;28;45332;-61
2022/11/15 14:00:43;;;;;;;0.50;0.50;;;24.60;44.60;;;;;;4950348;28;45755;-60
2022/11/15 14:03:14;;;;;;;0.60;0.40;;;24.60;44.60;;;;;;4915317;28;45269;-60
2022/11/15 14:05:40;;;;;;;0.75;0.40;;;24.60;44.50;;;;;;4950793;28;45228;-61
2022/11/15 14:08:23;;;;;;;0.40;0.40;;;24.60;44.60;;;;;;4942628;28;45480;-59
2022/11/15 14:11:04;;;;;;;0.60;0.45;;;24.70;44.40;;;;;;4930637;28;45234;-60
2022/11/15 14:13:30;;;;;;;0.50;0.40;;;24.70;44.70;;;;;;4918980;28;45370;-62
2022/11/15 14:16:15;;;;;;;0.70;0.60;;;24.70;44.60;;;;;;4938304;28;45226;-61
2022/11/15 14:18:44;;;;;;;0.57;0.57;;;24.70;44.50;;;;;;4950151;28;45275;-61
2022/11/15 14:21:09;;;;;;;0.68;0.55;;;24.70;44.70;;;;;;4923893;28;45962;-62
2022/11/15 14:23:35;;;;;;;0.82;0.50;;;24.70;44.70;;;;;;4936981;28;45221;-61
2022/11/15 14:26:01;;;;;;;0.50;0.50;;;24.70;44.70;;;;;;4952580;28;44750;-60
2022/11/15 14:28:26;;;;;;;0.55;0.47;;;24.70;44.70;;;;;;4936365;28;45047;-59
2022/11/15 14:30:53;;;;;;;0.75;0.40;;;24.70;44.70;;;;;;4960109;28;45158;-60
2022/11/15 14:33:32;;;;;;;0.50;0.40;;;24.70;44.70;;;;;;4935480;28;45351;-60
2022/11/15 14:36:06;;;;;;;0.93;0.50;;;24.70;44.60;;;;;;4906895;28;45674;-61
2022/11/15 14:38:32;;;;;;;0.80;0.57;;;24.70;44.70;;;;;;4922456;28;45019;-60
2022/11/15 14:40:58;;;;;;;0.50;0.50;;;24.70;44.70;;;;;;4935166;28;45223;-60
2022/11/15 14:43:23;;;;;;;0.82;0.50;;;24.70;44.70;;;;;;4936191;28;44961;-59
2022/11/15 14:45:49;;;;;;;0.80;0.60;;;24.70;44.70;;;;;;4920661;28;44695;-59
2022/11/15 14:48:15;;;;;;;0.73;0.50;;;24.70;44.80;;;;;;4951914;28;45275;-61
2022/11/15 14:50:40;;;;;;;1.00;0.50;;;24.70;44.70;;;;;;4874982;28;46276;-58
2022/11/15 14:53:06;;;;;;;0.60;0.40;;;24.70;44.80;;;;;;4947691;28;44667;-59
2022/11/15 14:55:35;;;;;;;0.47;0.47;;;24.70;44.80;;;;;;4927192;28;45252;-60
2022/11/15 14:58:02;;;;;;;0.88;0.60;;;24.70;44.80;;;;;;4950744;28;45680;-59
2022/11/15 15:00:31;;;;;;;0.85;0.52;;;24.70;44.80;;;;;;4954033;28;45315;-60
2022/11/15 15:02:57;;;;;;;0.40;0.40;;;24.70;44.80;;;;;;4931288;28;44644;-59
2022/11/15 15:05:23;;;;;;;0.50;0.50;;;24.80;44.80;;;;;;4944986;28;45305;-61
2022/11/15 15:07:50;;;;;;;0.85;0.50;;;24.80;44.80;;;;;;4938023;28;45500;-60
2022/11/15 15:10:16;;;;;;;0.50;0.50;;;24.80;44.80;;;;;;4952344;28;46425;-61
2022/11/15 15:12:42;;;;;;;2.88;0.47;;;24.80;44.70;;;;;;4945322;28;45227;-62
2022/11/15 15:15:21;;;;;;;0.32;0.32;;;24.80;44.70;;;;;;4933479;28;45296;-59
2022/11/15 15:17:46;;;;;;;0.38;0.30;;;24.90;44.60;;;;;;4933924;28;45525;-61
2022/11/15 15:20:12;;;;;;;0.40;0.32;;;24.90;44.70;;;;;;4951725;28;45397;-61
2022/11/15 15:22:38;;;;;;;0.65;0.43;;;24.90;44.70;;;;;;4924648;28;45257;-60
2022/11/15 15:25:23;;;;;;;0.40;0.40;;;25.00;44.70;;;;;;4937882;28;45168;-62
2022/11/15 15:27:48;;;;;;;0.47;0.47;;;24.90;44.60;;;;;;4938090;28;45019;-59
2022/11/15 15:30:14;;;;;;;0.45;0.30;;;25.00;44.70;;;;;;4954287;28;45378;-61
2022/11/15 15:32:40;;;;;;;1.02;0.50;;;25.00;44.70;;;;;;4950690;28;44688;-60
2022/11/15 15:35:05;;;;;;;0.40;0.40;;;25.00;44.60;;;;;;4956089;28;45236;-60
2022/11/15 15:37:32;;;;;;;0.55;0.45;;;25.00;44.60;;;;;;4944638;28;45058;-60
2022/11/15 15:39:58;;;;;;;0.68;0.35;;;25.00;44.60;;;;;;4952630;28;46088;-60
2022/11/15 15:42:24;;;;;;;0.35;0.35;;;25.00;44.70;;;;;;4934210;28;45420;-60
2022/11/15 15:44:50;;;;;;;1.02;0.55;;;25.10;44.60;;;;;;4966987;28;45517;-62
2022/11/15 15:47:17;;;;;;;0.50;0.30;;;25.00;44.60;;;;;;4938034;28;44999;-61
2022/11/15 15:49:46;;;;;;;0.30;0.30;;;25.00;44.60;;;;;;4921092;28;45496;-63
2022/11/15 15:52:12;;;;;;;0.50;0.50;;;25.00;44.60;;;;;;4933959;28;45324;-62
2022/11/15 15:54:38;;;;;;;0.40;0.40;;;25.00;44.70;;;;;;4953226;28;45725;-62
2022/11/15 15:57:04;;;;;;;0.40;0.40;;;25.00;44.70;;;;;;4953963;28;45208;-62
2022/11/15 15:59:30;;;;;;;0.45;0.38;;;25.10;44.70;;;;;;4928802;28;46164;-63
2022/11/15 16:01:55;;;;;;;0.47;0.40;;;25.00;44.70;;;;;;4939372;28;45305;-63
2022/11/15 16:04:21;;;;;;;0.60;0.60;;;25.00;44.70;;;;;;4936301;28;45588;-62
2022/11/15 16:06:47;;;;;;;0.40;0.40;;;25.00;44.80;;;;;;4934092;28;45248;-62
2022/11/15 16:09:14;;;;;;;0.40;0.40;;;25.00;44.80;;;;;;4934975;28;47082;-60
2022/11/15 16:11:43;;;;;;;0.60;0.40;;;25.00;44.90;;;;;;4934237;28;45069;-61
2022/11/15 16:14:09;;;;;;;0.73;0.40;;;25.00;44.80;;;;;;4931209;28;45542;-61
2022/11/15 16:16:35;;;;;;;1.70;0.45;;;25.00;45.40;;;;;;4929308;28;44972;-62
2022/11/15 16:19:01;;;;;;;0.45;0.40;;;25.00;44.80;;;;;;4932224;28;45253;-60
2022/11/15 16:21:27;;;;;;;0.52;0.38;;;25.00;44.80;;;;;;4930454;28;45885;-61
2022/11/15 16:23:53;;;;;;;0.32;0.32;;;25.00;44.80;;;;;;4927716;28;45385;-61
2022/11/15 16:26:26;;;;;;;0.52;0.50;;;25.00;44.70;;;;;;4914072;28;45486;-61
2022/11/15 16:28:52;;;;;;;0.68;0.60;;;24.90;44.80;;;;;;4938480;28;46466;-62
2022/11/15 16:31:19;;;;;;;3.17;0.60;;;24.80;44.90;;;;;;4935401;28;44721;-59
2022/11/15 16:33:45;;;;;;;0.47;0.40;;;24.70;45.10;;;;;;4929470;28;45155;-60
2022/11/15 16:36:22;;;;;;;1.75;0.50;;;24.60;45.30;;;;;;4921115;28;45177;-62
2022/11/15 16:38:47;;;;;;;1.23;0.55;;;24.50;45.20;;;;;;4926915;28;45516;-61
2022/11/15 16:41:13;;;;;;;0.60;0.50;;;24.40;45.50;;;;;;4932456;28;45525;-62
2022/11/15 16:43:39;;;;;;;0.98;0.65;;;24.40;45.60;;;;;;4935180;28;45228;-60
2022/11/15 16:46:22;;;;;;;0.60;0.47;;;24.20;45.70;;;;;;4931493;28;45262;-62
2022/11/15 16:48:48;;;;;;;1.23;0.50;;;24.20;45.80;;;;;;4925755;28;46142;-60
2022/11/15 16:51:13;;;;;;;1.90;0.50;;;24.10;45.80;;;;;;4934848;28;45554;-62
2022/11/15 16:53:39;;;;;;;1.92;0.50;;;24.10;46.00;;;;;;4918308;28;45342;-61
2022/11/15 16:56:23;;;;;;;1.20;0.47;;;24.00;46.00;;;;;;4936504;28;46200;-62
2022/11/15 16:58:49;;;;;;;0.40;0.40;;;24.00;46.10;;;;;;4932598;28;45697;-62
2022/11/15 17:01:22;;;;;;;0.60;0.50;;;23.90;46.20;;;;;;4934040;28;45445;-61
2022/11/15 17:03:48;;;;;;;2.78;0.57;;;23.80;46.20;;;;;;4911425;28;45242;-61
2022/11/15 17:06:14;;;;;;;0.75;0.52;;;23.70;46.30;;;;;;4935326;28;45637;-60
2022/11/15 17:08:40;;;;;;;0.70;0.60;;;23.70;46.40;;;;;;4914899;28;46228;-60
2022/11/15 17:11:06;;;;;;;0.75;0.50;;;23.60;46.50;;;;;;4943803;28;44928;-61
2022/11/15 17:13:32;;;;;;;1.42;0.43;;;23.50;46.50;;;;;;4916396;28;45570;-60
2022/11/15 17:16:06;;;;;;;0.50;0.50;;;23.50;46.60;;;;;;4919541;28;44802;-63
2022/11/15 17:18:31;;;;;;;0.63;0.55;;;23.50;46.70;;;;;;4941754;28;45364;-60
2022/11/15 17:20:57;;;;;;;2.72;0.70;;;23.40;46.80;;;;;;4932587;28;45432;-62
2022/11/15 17:23:22;;;;;;;0.50;0.50;;;23.40;46.90;;;;;;4931596;28;46047;-61
2022/11/15 17:25:57;;;;;;;0.50;0.50;;;23.30;47.00;;;;;;4948930;28;45311;-59